createdAt,value
2019-05-29T00:01:03.621Z,99.90
2019-05-29T00:03:33.065Z,99.90
2019-05-29T00:06:02.172Z,99.90
2019-05-29T00:08:31.516Z,99.90
2019-05-29T00:11:01.940Z,99.90
2019-05-29T00:13:31.653Z,99.90
2019-05-29T00:16:00.801Z,99.90
2019-05-29T00:18:30.127Z,99.90
2019-05-29T00:20:59.409Z,99.90
2019-05-29T00:23:28.862Z,99.90
2019-05-29T00:25:58.029Z,99.90
2019-05-29T00:28:27.130Z,99.90
2019-05-29T00:30:57.980Z,99.90
2019-05-29T00:33:27.397Z,99.90
2019-05-29T00:35:56.408Z,99.90
2019-05-29T00:38:25.400Z,99.90
2019-05-29T00:40:54.904Z,99.90
2019-05-29T00:43:24.616Z,99.90
2019-05-29T00:45:54.420Z,99.90
2019-05-29T00:48:23.826Z,99.90
2019-05-29T00:50:53.404Z,99.90
2019-05-29T00:53:23.149Z,99.90
2019-05-29T00:55:54.605Z,99.90
2019-05-29T00:58:28.492Z,99.90
2019-05-29T01:00:57.569Z,99.90
2019-05-29T01:03:28.132Z,99.90
2019-05-29T01:05:57.335Z,99.90
2019-05-29T01:08:27.699Z,99.90
2019-05-29T01:10:56.849Z,99.90
2019-05-29T01:13:25.980Z,99.90
2019-05-29T01:15:55.114Z,99.90
2019-05-29T01:18:24.576Z,99.90
2019-05-29T01:20:55.203Z,99.90
2019-05-29T01:23:24.351Z,99.90
2019-05-29T01:25:54.384Z,99.90
2019-05-29T01:28:24.077Z,99.90
2019-05-29T01:30:53.139Z,99.90
2019-05-29T01:33:23.728Z,99.90
2019-05-29T01:35:53.320Z,99.90
2019-05-29T01:38:23.596Z,99.90
2019-05-29T01:40:52.892Z,99.90
2019-05-29T01:43:23.465Z,99.90
2019-05-29T01:45:52.737Z,99.90
2019-05-29T01:48:21.800Z,99.90
2019-05-29T01:50:50.958Z,99.90
2019-05-29T01:53:20.336Z,99.90
2019-05-29T01:55:50.105Z,99.90
2019-05-29T01:58:37.521Z,99.90
2019-05-29T02:01:06.917Z,99.90
2019-05-29T02:03:36.045Z,99.90
2019-05-29T02:06:05.117Z,99.90
2019-05-29T02:08:34.730Z,99.90
2019-05-29T02:11:05.245Z,99.90
2019-05-29T02:13:34.522Z,99.90
2019-05-29T02:16:03.786Z,99.90
2019-05-29T02:18:32.932Z,99.90
2019-05-29T02:21:02.257Z,99.90
2019-05-29T02:23:31.321Z,99.90
2019-05-29T02:26:00.458Z,99.90
2019-05-29T02:28:30.660Z,99.90
2019-05-29T02:31:02.349Z,99.90
2019-05-29T02:33:31.861Z,99.90
2019-05-29T02:36:00.963Z,99.90
2019-05-29T02:38:30.072Z,99.90
2019-05-29T02:41:02.347Z,99.90
2019-05-29T02:43:31.948Z,99.90
2019-05-29T02:46:01.118Z,99.90
2019-05-29T02:48:31.822Z,99.90
2019-05-29T02:51:01.256Z,99.90
2019-05-29T02:53:30.815Z,99.90
2019-05-29T02:56:00.164Z,99.90
2019-05-29T02:58:30.262Z,99.90
2019-05-29T03:01:00.606Z,99.90
2019-05-29T03:03:34.501Z,99.90
2019-05-29T03:06:00.768Z,99.90
2019-05-29T03:08:33.924Z,99.90
2019-05-29T03:11:02.502Z,99.90
2019-05-29T03:13:32.369Z,99.90
2019-05-29T03:16:10.315Z,99.90
2019-05-29T03:18:35.123Z,99.90
2019-05-29T03:21:04.965Z,99.90
2019-05-29T03:23:36.275Z,99.90
2019-05-29T03:26:04.935Z,99.90
2019-05-29T03:28:35.135Z,99.90
2019-05-29T03:31:04.446Z,99.90
2019-05-29T03:33:43.100Z,99.90
2019-05-29T03:36:04.421Z,99.90
2019-05-29T03:38:34.961Z,99.90
2019-05-29T03:41:04.530Z,99.90
2019-05-29T03:43:35.934Z,99.90
2019-05-29T03:46:05.215Z,99.90
2019-05-29T03:48:34.556Z,99.90
2019-05-29T03:51:05.592Z,99.90
2019-05-29T03:53:36.743Z,99.90
2019-05-29T03:56:05.525Z,99.90
2019-05-29T03:58:37.468Z,99.90
2019-05-29T04:01:06.217Z,99.90
2019-05-29T04:03:36.055Z,99.90
2019-05-29T04:06:06.466Z,99.90
2019-05-29T04:08:38.215Z,99.90
2019-05-29T04:11:07.548Z,99.90
2019-05-29T04:13:38.773Z,99.90
2019-05-29T04:16:09.088Z,99.90
2019-05-29T04:18:40.349Z,99.90
2019-05-29T04:21:10.675Z,99.90
2019-05-29T04:23:42.551Z,99.90
2019-05-29T04:26:15.437Z,99.90
2019-05-29T04:28:44.661Z,99.90
2019-05-29T04:31:13.744Z,99.90
2019-05-29T04:33:44.230Z,99.90
2019-05-29T04:36:13.340Z,99.90
2019-05-29T04:38:43.167Z,99.90
2019-05-29T04:41:12.196Z,99.90
2019-05-29T04:43:41.294Z,99.90
2019-05-29T04:46:13.893Z,99.90
2019-05-29T04:48:43.065Z,99.90
2019-05-29T04:51:14.530Z,99.90
2019-05-29T04:53:44.022Z,99.90
2019-05-29T04:56:13.609Z,99.90
2019-05-29T04:58:42.920Z,99.90
2019-05-29T05:01:12.240Z,99.90
2019-05-29T05:03:42.480Z,99.90
2019-05-29T05:06:12.555Z,99.90
2019-05-29T05:08:42.036Z,99.90
2019-05-29T05:11:11.688Z,99.90
2019-05-29T05:13:41.052Z,99.90
2019-05-29T05:16:11.118Z,99.90
2019-05-29T05:18:40.379Z,99.90
2019-05-29T05:21:09.601Z,99.90
2019-05-29T05:23:40.296Z,99.90
2019-05-29T05:26:10.114Z,99.90
2019-05-29T05:28:42.087Z,99.90
2019-05-29T05:31:10.396Z,99.90
2019-05-29T05:33:40.985Z,99.90
2019-05-29T05:36:10.605Z,99.90
2019-05-29T05:38:43.581Z,99.90
2019-05-29T05:41:13.405Z,99.90
2019-05-29T05:43:42.594Z,99.90
2019-05-29T05:46:11.813Z,99.90
2019-05-29T05:48:41.497Z,99.90
2019-05-29T05:51:10.798Z,99.90
2019-05-29T05:53:40.227Z,99.90
2019-05-29T05:56:09.248Z,99.90
2019-05-29T05:58:39.948Z,99.90
2019-05-29T06:01:09.456Z,99.90
2019-05-29T06:03:40.610Z,99.90
2019-05-29T06:06:09.837Z,99.90
2019-05-29T06:08:40.167Z,99.90
2019-05-29T06:11:09.396Z,99.90
2019-05-29T06:13:38.850Z,99.90
2019-05-29T06:16:08.252Z,99.90
2019-05-29T06:18:43.205Z,99.90
2019-05-29T06:21:12.457Z,99.90
2019-05-29T06:23:43.480Z,99.90
2019-05-29T06:26:14.543Z,99.90
2019-05-29T06:28:43.970Z,99.90
2019-05-29T06:31:13.547Z,99.90
2019-05-29T06:33:43.912Z,99.90
2019-05-29T06:36:13.689Z,99.90
2019-05-29T06:38:44.248Z,99.90
2019-05-29T06:41:15.637Z,99.90
2019-05-29T06:43:44.780Z,99.90
2019-05-29T06:46:14.282Z,99.90
2019-05-29T06:48:57.527Z,99.90
2019-05-29T06:51:14.217Z,99.90
2019-05-29T06:53:43.963Z,99.90
2019-05-29T06:56:13.451Z,99.90
2019-05-29T06:58:44.166Z,99.90
2019-05-29T07:01:13.523Z,99.90
2019-05-29T07:03:44.007Z,99.90
2019-05-29T07:06:17.469Z,99.90
2019-05-29T07:08:49.656Z,99.90
2019-05-29T07:11:17.621Z,99.90
2019-05-29T07:13:50.565Z,99.90
2019-05-29T07:16:19.677Z,99.90
2019-05-29T07:19:23.866Z,99.90
2019-05-29T07:21:25.964Z,99.90
2019-05-29T07:23:55.440Z,99.90
2019-05-29T07:26:24.664Z,99.90
2019-05-29T07:29:07.093Z,99.90
2019-05-29T07:31:25.350Z,99.90
2019-05-29T07:33:55.229Z,99.90
2019-05-29T07:36:24.307Z,99.90
2019-05-29T07:39:02.680Z,99.90
2019-05-29T07:41:24.988Z,99.90
2019-05-29T07:43:54.439Z,99.90
2019-05-29T07:46:23.492Z,99.90
2019-05-29T07:48:52.994Z,99.90
2019-05-29T07:51:22.133Z,99.90
2019-05-29T07:53:51.347Z,99.90
2019-05-29T07:56:23.031Z,99.90
2019-05-29T07:59:01.802Z,99.90
2019-05-29T08:01:23.796Z,99.90
2019-05-29T08:03:53.205Z,99.90
2019-05-29T08:06:22.278Z,99.90
2019-05-29T08:08:51.402Z,99.90
2019-05-29T08:11:20.692Z,99.90
2019-05-29T08:13:50.090Z,99.90
2019-05-29T08:16:20.275Z,99.90
2019-05-29T08:18:52.899Z,99.90
2019-05-29T08:21:20.761Z,99.90
2019-05-29T08:23:50.920Z,99.90
2019-05-29T08:26:20.108Z,99.90
2019-05-29T08:28:50.916Z,99.90
2019-05-29T08:31:20.535Z,99.90
2019-05-29T08:33:51.468Z,99.90
2019-05-29T08:36:20.756Z,99.90
2019-05-29T08:38:49.826Z,99.90
2019-05-29T08:41:18.941Z,99.90
2019-05-29T08:43:48.502Z,99.90
2019-05-29T08:46:18.187Z,99.90
2019-05-29T08:48:49.978Z,99.90
2019-05-29T08:51:19.898Z,99.90
2019-05-29T08:53:51.845Z,99.90
2019-05-29T08:56:20.360Z,99.90
2019-05-29T08:58:50.525Z,99.90
2019-05-29T09:01:20.151Z,99.90
2019-05-29T09:03:51.014Z,99.90
2019-05-29T09:06:20.493Z,99.90
2019-05-29T09:08:51.750Z,99.90
2019-05-29T09:11:22.672Z,99.90
2019-05-29T09:13:51.776Z,99.90
2019-05-29T09:16:20.984Z,99.90
2019-05-29T09:18:50.807Z,99.90
2019-05-29T09:21:20.706Z,99.90
2019-05-29T09:23:50.036Z,99.90
2019-05-29T09:26:23.012Z,99.90
2019-05-29T09:28:50.636Z,99.90
2019-05-29T09:31:20.320Z,99.90
2019-05-29T09:33:51.204Z,99.90
2019-05-29T09:36:20.685Z,99.90
2019-05-29T09:38:49.971Z,99.90
2019-05-29T09:41:19.182Z,99.90
2019-05-29T09:43:58.790Z,99.40
2019-05-29T09:46:21.843Z,99.90
2019-05-29T09:48:51.181Z,99.90
2019-05-29T09:51:21.529Z,99.60
2019-05-29T09:53:52.548Z,99.90
2019-05-29T09:56:23.196Z,99.10
2019-05-29T09:58:55.225Z,99.90
2019-05-29T10:01:26.145Z,99.90
2019-05-29T10:03:57.162Z,99.90
2019-05-29T10:06:26.320Z,99.90
2019-05-29T10:08:56.204Z,99.90
2019-05-29T10:11:26.673Z,99.90
2019-05-29T10:13:56.969Z,98.00
2019-05-29T10:16:27.485Z,99.40
2019-05-29T10:18:58.495Z,97.90
2019-05-29T10:21:40.043Z,97.90
2019-05-29T10:24:02.320Z,98.20
2019-05-29T10:26:37.018Z,98.60
2019-05-29T10:31:02.110Z,99.90
2019-05-29T10:31:38.262Z,99.90
2019-05-29T10:34:07.674Z,99.20
2019-05-29T10:36:37.681Z,99.90
2019-05-29T10:39:08.518Z,99.90
2019-05-29T10:41:37.592Z,99.90
2019-05-29T10:44:07.123Z,99.30
2019-05-29T10:46:36.196Z,97.80
2019-05-29T10:49:06.348Z,99.90
2019-05-29T10:51:35.701Z,99.90
2019-05-29T10:54:05.425Z,99.90
2019-05-29T10:56:35.598Z,99.90
2019-05-29T10:59:05.179Z,99.90
2019-05-29T11:01:34.482Z,99.90
2019-05-29T11:04:04.007Z,99.90
2019-05-29T11:06:33.189Z,99.90
2019-05-29T11:09:18.917Z,99.90
2019-05-29T11:12:03.059Z,99.90
2019-05-29T11:14:34.181Z,99.90
2019-05-29T11:17:04.052Z,99.90
2019-05-29T11:19:49.584Z,99.90
2019-05-29T11:22:34.993Z,99.90
2019-05-29T11:25:21.472Z,99.90
2019-05-29T11:27:36.930Z,99.90
2019-05-29T11:30:07.548Z,99.90
2019-05-29T11:32:37.781Z,99.90
2019-05-29T11:37:41.142Z,99.90
2019-05-29T11:40:10.575Z,99.90
2019-05-29T11:42:40.010Z,99.40
2019-05-29T11:45:09.983Z,97.80
2019-05-29T11:47:39.634Z,96.40
2019-05-29T11:50:19.145Z,95.80
2019-05-29T11:52:43.560Z,94.50
2019-05-29T11:55:14.113Z,96.20
2019-05-29T11:57:43.969Z,96.10
2019-05-29T12:00:19.606Z,94.20
2019-05-29T12:02:45.094Z,99.30
2019-05-29T12:05:14.989Z,97.00
2019-05-29T12:07:44.097Z,99.30
2019-05-29T12:10:14.929Z,94.60
2019-05-29T12:12:44.577Z,96.30
2019-05-29T12:15:17.595Z,98.60
2019-05-29T12:17:47.429Z,95.00
2019-05-29T12:20:28.057Z,99.90
2019-05-29T12:23:16.731Z,99.90
2019-05-29T12:25:19.873Z,97.80
2019-05-29T12:27:48.961Z,98.90
2019-05-29T12:30:18.745Z,94.00
2019-05-29T12:32:47.793Z,94.60
2019-05-29T12:35:20.525Z,95.90
2019-05-29T12:37:50.007Z,98.60
2019-05-29T12:40:19.366Z,99.80
2019-05-29T12:42:48.497Z,95.70
2019-05-29T12:45:18.078Z,96.80
2019-05-29T12:47:47.250Z,95.70
2019-05-29T12:50:17.195Z,98.00
2019-05-29T12:52:46.252Z,98.50
2019-05-29T12:55:15.962Z,94.70
2019-05-29T12:57:45.881Z,94.30
2019-05-29T13:00:15.730Z,93.60
2019-05-29T13:02:44.887Z,97.70
2019-05-29T13:05:20.135Z,98.30
2019-05-29T13:07:45.777Z,92.80
2019-05-29T13:10:30.134Z,95.60
2019-05-29T13:12:47.975Z,93.60
2019-05-29T13:15:17.769Z,96.60
2019-05-29T13:17:47.925Z,95.70
2019-05-29T13:20:22.005Z,94.50
2019-05-29T13:22:50.141Z,91.60
2019-05-29T13:25:20.239Z,92.40
2019-05-29T13:27:49.897Z,90.40
2019-05-29T13:30:19.178Z,93.50
2019-05-29T13:32:49.007Z,93.10
2019-05-29T13:35:22.182Z,94.00
2019-05-29T13:38:09.653Z,93.20
2019-05-29T13:41:00.836Z,91.20
2019-05-29T13:43:49.390Z,93.90
2019-05-29T13:46:18.789Z,88.40
2019-05-29T13:48:48.245Z,92.60
2019-05-29T13:51:17.289Z,90.00
2019-05-29T13:54:01.989Z,92.80
2019-05-29T13:56:18.610Z,93.10
2019-05-29T13:58:51.533Z,91.30
2019-05-29T14:01:20.630Z,92.80
2019-05-29T14:03:53.338Z,90.30
2019-05-29T14:06:23.391Z,93.20
2019-05-29T14:08:53.334Z,90.90
2019-05-29T14:11:23.061Z,91.20
2019-05-29T14:13:52.886Z,94.30
2019-05-29T14:16:22.361Z,92.90
2019-05-29T14:18:51.979Z,92.90
2019-05-29T14:21:21.652Z,93.10
2019-05-29T14:23:51.453Z,91.40
2019-05-29T14:26:21.064Z,94.10
2019-05-29T14:28:50.624Z,93.40
2019-05-29T14:31:19.788Z,93.10
2019-05-29T14:33:48.912Z,91.00
2019-05-29T14:36:18.720Z,90.20
2019-05-29T14:38:48.884Z,92.10
2019-05-29T14:41:19.067Z,92.70
2019-05-29T14:43:49.700Z,90.50
2019-05-29T14:46:19.808Z,91.90
2019-05-29T14:48:49.312Z,92.20
2019-05-29T14:51:19.160Z,92.00
2019-05-29T14:53:48.628Z,93.00
2019-05-29T14:56:19.455Z,95.10
2019-05-29T14:58:49.406Z,93.80
2019-05-29T15:01:19.380Z,93.60
2019-05-29T15:03:49.281Z,92.40
2019-05-29T15:06:18.671Z,94.10
2019-05-29T15:08:48.011Z,94.20
2019-05-29T15:11:17.399Z,94.40
2019-05-29T15:13:46.516Z,94.80
2019-05-29T15:16:15.824Z,97.00
2019-05-29T15:18:45.222Z,97.70
2019-05-29T15:21:15.376Z,94.50
2019-05-29T15:23:44.971Z,96.60
2019-05-29T15:26:14.069Z,97.60
2019-05-29T15:28:43.473Z,97.20
2019-05-29T15:31:12.693Z,96.90
2019-05-29T15:33:42.050Z,95.30
2019-05-29T15:36:14.702Z,95.90
2019-05-29T15:38:43.952Z,95.10
2019-05-29T15:41:13.090Z,96.10
2019-05-29T15:43:42.168Z,93.60
2019-05-29T15:46:13.379Z,96.20
2019-05-29T15:48:42.385Z,96.70
2019-05-29T15:51:13.150Z,97.90
2019-05-29T15:53:43.041Z,96.40
2019-05-29T15:56:23.322Z,94.40
2019-05-29T15:58:43.301Z,95.50
2019-05-29T16:01:13.771Z,94.80
2019-05-29T16:03:42.916Z,95.60
2019-05-29T16:06:12.172Z,93.40
2019-05-29T16:08:41.477Z,94.00
2019-05-29T16:11:12.687Z,95.50
2019-05-29T16:13:42.129Z,96.90
2019-05-29T16:16:11.201Z,97.90
2019-05-29T16:18:40.204Z,96.90
2019-05-29T16:21:10.590Z,96.70
2019-05-29T16:23:39.806Z,95.70
2019-05-29T16:26:08.878Z,95.90
2019-05-29T16:28:38.447Z,96.00
2019-05-29T16:31:07.825Z,94.30
2019-05-29T16:33:36.990Z,95.20
2019-05-29T16:36:06.165Z,94.90
2019-05-29T16:38:35.545Z,95.60
2019-05-29T16:41:05.363Z,95.80
2019-05-29T16:43:34.537Z,95.20
2019-05-29T16:46:03.772Z,95.50
2019-05-29T16:48:32.854Z,94.60
2019-05-29T16:51:02.258Z,93.10
2019-05-29T16:53:47.937Z,93.60
2019-05-29T16:56:17.269Z,94.70
2019-05-29T16:58:46.329Z,96.10
2019-05-29T17:01:15.557Z,96.60
2019-05-29T17:03:44.680Z,95.00
2019-05-29T17:06:13.791Z,94.50
2019-05-29T17:08:42.867Z,96.20
2019-05-29T17:11:11.962Z,96.00
2019-05-29T17:13:41.018Z,95.30
2019-05-29T17:16:10.417Z,95.50
2019-05-29T17:18:39.660Z,95.90
2019-05-29T17:21:08.746Z,96.10
2019-05-29T17:23:38.770Z,95.70
2019-05-29T17:26:10.996Z,93.30
2019-05-29T17:28:39.637Z,94.70
2019-05-29T17:31:08.740Z,94.60
2019-05-29T17:33:38.186Z,96.10
2019-05-29T17:36:07.247Z,96.40
2019-05-29T17:38:36.437Z,97.00
2019-05-29T17:41:09.490Z,97.50
2019-05-29T17:43:38.728Z,97.50
2019-05-29T17:46:08.069Z,96.30
2019-05-29T17:48:37.492Z,95.50
2019-05-29T17:51:06.877Z,96.50
2019-05-29T17:53:36.593Z,97.90
2019-05-29T17:56:05.862Z,97.20
2019-05-29T17:58:35.196Z,97.70
2019-05-29T18:01:19.953Z,98.20
2019-05-29T18:03:49.129Z,99.00
2019-05-29T18:06:18.566Z,98.80
2019-05-29T18:08:47.648Z,99.90
2019-05-29T18:11:16.953Z,99.30
2019-05-29T18:13:46.205Z,99.90
2019-05-29T18:16:15.277Z,99.90
2019-05-29T18:18:44.649Z,99.90
2019-05-29T18:21:14.151Z,99.90
2019-05-29T18:23:44.401Z,99.90
2019-05-29T18:26:13.504Z,99.90
2019-05-29T18:28:43.565Z,99.90
2019-05-29T18:31:28.980Z,99.90
2019-05-29T18:33:59.766Z,99.90
2019-05-29T18:36:29.692Z,99.90
2019-05-29T18:38:58.980Z,99.90
2019-05-29T18:41:28.993Z,99.90
2019-05-29T18:43:58.656Z,99.90
2019-05-29T18:46:29.150Z,99.90
2019-05-29T18:48:58.989Z,99.90
2019-05-29T18:51:28.628Z,99.90
2019-05-29T18:53:57.812Z,99.90
2019-05-29T18:56:28.056Z,99.90
2019-05-29T18:58:57.293Z,99.90
2019-05-29T19:01:27.571Z,99.90
2019-05-29T19:03:56.752Z,99.90
2019-05-29T19:06:25.816Z,99.90
2019-05-29T19:08:56.363Z,99.90
2019-05-29T19:11:27.930Z,99.90
2019-05-29T19:13:58.661Z,99.90
2019-05-29T19:16:30.020Z,99.90
2019-05-29T19:18:59.475Z,99.90
2019-05-29T19:21:28.900Z,99.90
2019-05-29T19:23:57.939Z,99.90
2019-05-29T19:26:27.311Z,99.90
2019-05-29T19:28:56.724Z,99.90
2019-05-29T19:31:26.980Z,99.90
2019-05-29T19:33:56.300Z,99.90
2019-05-29T19:36:25.709Z,99.90
2019-05-29T19:38:54.760Z,99.90
2019-05-29T19:41:24.012Z,99.90
2019-05-29T19:43:53.364Z,99.90
2019-05-29T19:46:22.740Z,99.90
2019-05-29T19:48:51.987Z,99.90
2019-05-29T19:51:21.210Z,99.90
2019-05-29T19:53:50.611Z,99.90
2019-05-29T19:56:20.049Z,99.90
2019-05-29T19:58:49.148Z,99.90
2019-05-29T20:01:30.707Z,99.90
2019-05-29T20:03:49.335Z,99.90
2019-05-29T20:06:18.637Z,99.90
2019-05-29T20:08:49.213Z,99.90
2019-05-29T20:11:18.461Z,99.90
2019-05-29T20:13:47.882Z,99.90
2019-05-29T20:16:17.525Z,99.90
2019-05-29T20:18:46.945Z,99.90
2019-05-29T20:21:16.320Z,99.90
2019-05-29T20:23:45.465Z,99.90
2019-05-29T20:26:14.577Z,99.90
2019-05-29T20:28:47.060Z,99.90
2019-05-29T20:31:16.169Z,99.90
2019-05-29T20:33:46.216Z,99.90
2019-05-29T20:36:16.254Z,99.90
2019-05-29T20:38:45.637Z,99.90
2019-05-29T20:41:14.856Z,99.90
2019-05-29T20:43:44.300Z,99.90
2019-05-29T20:46:13.368Z,99.90
2019-05-29T20:48:43.008Z,99.90
2019-05-29T20:51:12.349Z,99.90
2019-05-29T20:53:41.843Z,99.90
2019-05-29T20:56:11.108Z,99.90
2019-05-29T20:58:40.556Z,99.90
2019-05-29T21:01:10.541Z,99.90
2019-05-29T21:03:40.878Z,99.90
2019-05-29T21:06:10.190Z,99.90
2019-05-29T21:08:39.265Z,99.90
2019-05-29T21:11:09.416Z,99.90
2019-05-29T21:13:39.476Z,99.90
2019-05-29T21:16:08.670Z,99.90
2019-05-29T21:18:37.896Z,99.90
2019-05-29T21:21:07.557Z,99.90
2019-05-29T21:23:36.697Z,99.90
2019-05-29T21:26:05.786Z,99.90
2019-05-29T21:28:40.785Z,99.90
2019-05-29T21:31:06.342Z,99.90
2019-05-29T21:33:35.784Z,99.90
2019-05-29T21:36:05.408Z,99.90
2019-05-29T21:38:34.476Z,99.90
2019-05-29T21:41:03.913Z,99.90
2019-05-29T21:43:33.016Z,99.90
2019-05-29T21:46:03.560Z,99.90
2019-05-29T21:48:32.639Z,99.90
2019-05-29T21:51:02.038Z,99.90
2019-05-29T21:53:31.852Z,99.90
2019-05-29T21:56:01.037Z,99.90
2019-05-29T21:58:30.437Z,99.90
2019-05-29T22:00:59.826Z,99.90
2019-05-29T22:03:29.100Z,99.90
2019-05-29T22:05:58.136Z,99.90
2019-05-29T22:08:27.738Z,99.90
2019-05-29T22:10:57.491Z,99.90
2019-05-29T22:13:26.737Z,99.90
2019-05-29T22:15:56.893Z,99.90
2019-05-29T22:18:29.657Z,99.90
2019-05-29T22:20:59.912Z,99.90
2019-05-29T22:23:30.478Z,99.90
2019-05-29T22:25:59.772Z,99.90
2019-05-29T22:28:29.776Z,99.90
2019-05-29T22:30:59.487Z,99.90
2019-05-29T22:33:28.651Z,99.90
2019-05-29T22:35:58.001Z,99.90
2019-05-29T22:38:27.385Z,99.90
2019-05-29T22:40:57.739Z,99.90
2019-05-29T22:43:27.331Z,99.90
2019-05-29T22:45:57.465Z,99.90
2019-05-29T22:48:26.864Z,99.90
2019-05-29T22:50:55.964Z,99.90
2019-05-29T22:53:25.074Z,99.90
2019-05-29T22:55:55.747Z,99.90
2019-05-29T22:58:25.011Z,99.90
2019-05-29T23:01:11.476Z,99.90
2019-05-29T23:03:58.229Z,99.90
2019-05-29T23:06:28.058Z,99.90
2019-05-29T23:08:58.396Z,99.90
2019-05-29T23:11:27.804Z,99.90
2019-05-29T23:13:58.331Z,99.90
2019-05-29T23:16:27.676Z,99.90
2019-05-29T23:18:57.018Z,99.90
2019-05-29T23:21:26.375Z,99.90
2019-05-29T23:23:55.836Z,99.90
2019-05-29T23:26:25.181Z,99.90
2019-05-29T23:31:29.396Z,99.90
2019-05-29T23:33:58.981Z,99.90
2019-05-29T23:36:28.250Z,99.90
2019-05-29T23:38:57.394Z,99.90
2019-05-29T23:41:26.456Z,99.90
2019-05-29T23:43:55.864Z,99.90
2019-05-29T23:46:25.069Z,99.90
2019-05-29T23:48:55.124Z,99.90
2019-05-29T23:51:24.669Z,99.90
2019-05-29T23:53:55.560Z,99.90
2019-05-29T23:56:24.958Z,99.90
2019-05-29T23:58:53.997Z,99.90
